Time;durP1;ratioP1;P1;durP2;ratioP2;P2;SDS_P1;SDS_P2;PMS_P1;PMS_P2;Temp;Humidity;BMP_temperature;BMP_pressure;BME280_temperature;BME280_humidity;BME280_pressure;Samples;Min_cycle;Max_cycle;Signal;HPM_P1;HPM_P2
2022/01/31 00:00:09;;;;;;;24.73;9.57;;;3.90;76.60;;;;;;5044942;28;20041;-74
2022/01/31 00:02:35;;;;;;;26.20;9.70;;;3.90;76.40;;;;;;5058785;28;20055;-74
2022/01/31 00:05:05;;;;;;;21.63;9.40;;;3.90;76.30;;;;;;5041609;28;20321;-74
2022/01/31 00:07:30;;;;;;;22.95;8.70;;;3.90;76.20;;;;;;5064934;28;20060;-74
2022/01/31 00:09:56;;;;;;;22.13;8.37;;;3.90;76.20;;;;;;5044966;28;20041;-74
2022/01/31 00:12:25;;;;;;;21.70;8.30;;;3.90;76.00;;;;;;5033773;28;20041;-74
2022/01/31 00:14:53;;;;;;;24.85;8.38;;;3.90;75.60;;;;;;5063076;28;20067;-74
2022/01/31 00:17:19;;;;;;;20.45;7.68;;;4.00;75.60;;;;;;5034514;28;20217;-74
2022/01/31 00:19:45;;;;;;;22.70;6.97;;;4.00;75.80;;;;;;5044469;28;20636;-74
2022/01/31 00:22:13;;;;;;;23.45;7.35;;;4.00;75.90;;;;;;5039243;28;20045;-74
2022/01/31 00:24:40;;;;;;;22.63;7.45;;;3.90;76.00;;;;;;5045075;28;20076;-74
2022/01/31 00:27:08;;;;;;;19.00;7.97;;;3.90;76.40;;;;;;5064258;28;20080;-74
2022/01/31 00:29:33;;;;;;;22.63;7.22;;;3.90;76.50;;;;;;5072788;28;20032;-74
2022/01/31 00:31:59;;;;;;;20.80;7.67;;;3.90;76.70;;;;;;5040893;28;20404;-74
2022/01/31 00:34:25;;;;;;;28.00;8.00;;;3.90;76.70;;;;;;5068143;28;20532;-74
2022/01/31 00:36:52;;;;;;;24.75;8.30;;;3.90;77.50;;;;;;5040589;28;20080;-74
2022/01/31 00:39:18;;;;;;;20.60;7.47;;;3.90;77.80;;;;;;5054236;28;20098;-74
2022/01/31 00:41:44;;;;;;;24.13;7.75;;;3.80;77.70;;;;;;5048586;28;20091;-74
2022/01/31 00:47:29;;;;;;;26.05;8.65;;;3.80;78.60;;;;;;5050534;28;20053;-75
2022/01/31 00:50:07;;;;;;;21.17;8.65;;;3.70;79.10;;;;;;5062211;28;20045;-75
2022/01/31 00:52:34;;;;;;;21.30;9.45;;;3.70;79.70;;;;;;5044689;28;20044;-75
2022/01/31 00:55:00;;;;;;;21.50;9.43;;;3.70;80.10;;;;;;5078196;28;20055;-76
2022/01/31 00:57:26;;;;;;;30.30;10.15;;;3.70;80.60;;;;;;5067642;28;20040;-75
2022/01/31 00:59:51;;;;;;;26.63;10.43;;;3.60;81.30;;;;;;5046056;28;20509;-75
2022/01/31 01:02:22;;;;;;;26.37;11.63;;;3.60;81.30;;;;;;5051563;28;20100;-75
2022/01/31 01:04:48;;;;;;;25.75;10.90;;;3.50;81.60;;;;;;5083835;28;20629;-75
2022/01/31 01:07:14;;;;;;;30.00;11.43;;;3.50;82.20;;;;;;5052923;28;20044;-76
2022/01/31 01:09:42;;;;;;;30.02;11.60;;;3.40;82.60;;;;;;5077834;28;20060;-75
2022/01/31 01:12:09;;;;;;;24.65;10.93;;;3.40;82.80;;;;;;5073611;28;20041;-75
2022/01/31 01:14:35;;;;;;;28.73;11.93;;;3.40;82.50;;;;;;5069947;28;20069;-75
2022/01/31 01:17:00;;;;;;;25.43;10.63;;;3.40;82.80;;;;;;5072433;28;20094;-75
2022/01/31 01:19:26;;;;;;;22.97;10.87;;;3.40;83.00;;;;;;5045241;28;20136;-75
2022/01/31 01:21:52;;;;;;;22.70;9.17;;;3.30;83.20;;;;;;5063104;28;20053;-75
2022/01/31 01:24:18;;;;;;;15.00;7.90;;;3.30;83.10;;;;;;5063876;28;20052;-75
2022/01/31 01:26:44;;;;;;;16.47;7.63;;;3.20;83.70;;;;;;5070962;28;20045;-75
2022/01/31 01:29:10;;;;;;;14.75;7.03;;;3.10;83.80;;;;;;5063616;28;20068;-75
2022/01/31 01:31:36;;;;;;;11.90;4.43;;;3.10;84.00;;;;;;5051650;28;20040;-74
2022/01/31 01:34:02;;;;;;;12.95;4.03;;;3.00;83.70;;;;;;5058894;28;20512;-75
2022/01/31 01:36:28;;;;;;;8.13;3.10;;;3.00;83.90;;;;;;5053397;28;20041;-74
2022/01/31 01:38:54;;;;;;;11.97;3.07;;;2.90;83.90;;;;;;5064386;28;20888;-74
2022/01/31 01:41:20;;;;;;;8.43;3.60;;;2.90;84.10;;;;;;5051966;28;20191;-75
2022/01/31 01:43:46;;;;;;;15.52;4.63;;;3.00;84.60;;;;;;5051494;28;20040;-74
2022/01/31 01:46:12;;;;;;;16.77;5.93;;;3.00;84.50;;;;;;5052355;28;20497;-74
2022/01/31 01:48:38;;;;;;;13.75;6.82;;;3.00;84.50;;;;;;5044984;28;20049;-74
2022/01/31 01:51:04;;;;;;;17.93;7.17;;;3.00;84.80;;;;;;5058321;28;20101;-75
2022/01/31 01:53:30;;;;;;;14.07;5.72;;;3.00;85.20;;;;;;5052680;28;20037;-74
2022/01/31 01:55:56;;;;;;;13.50;6.05;;;3.10;85.00;;;;;;5076809;28;20041;-75
2022/01/31 01:58:24;;;;;;;14.75;6.05;;;3.10;84.90;;;;;;5067665;28;20052;-75
2022/01/31 02:01:02;;;;;;;16.67;5.80;;;3.10;85.30;;;;;;5079283;28;20049;-74
2022/01/31 02:03:31;;;;;;;20.52;7.05;;;3.20;85.30;;;;;;5059753;28;20040;-75
2022/01/31 02:05:57;;;;;;;20.23;6.40;;;3.20;85.50;;;;;;5075147;28;20101;-75
2022/01/31 02:08:25;;;;;;;19.83;7.22;;;3.20;85.40;;;;;;5060417;28;20124;-75
2022/01/31 02:10:51;;;;;;;18.10;6.15;;;3.30;85.50;;;;;;5048144;28;20041;-75
2022/01/31 02:13:17;;;;;;;13.47;5.30;;;3.30;85.50;;;;;;5039359;28;20124;-75
2022/01/31 02:15:50;;;;;;;15.47;5.13;;;3.40;85.80;;;;;;5058103;28;20276;-75
2022/01/31 02:18:16;;;;;;;14.60;4.75;;;3.40;85.90;;;;;;5059936;28;20294;-75
2022/01/31 02:20:43;;;;;;;19.25;5.05;;;3.40;86.10;;;;;;5052887;28;20044;-75
2022/01/31 02:23:12;;;;;;;16.23;4.43;;;3.50;86.30;;;;;;5078246;28;20565;-75
2022/01/31 02:26:05;;;;;;;15.05;4.45;;;3.50;86.40;;;;;;5078670;28;20044;-75
2022/01/31 02:28:33;;;;;;;18.17;4.28;;;3.60;86.70;;;;;;5056271;28;20052;-75
2022/01/31 02:31:00;;;;;;;19.35;5.05;;;3.80;87.10;;;;;;5076119;28;20059;-75
2022/01/31 02:33:27;;;;;;;16.75;5.10;;;4.00;87.20;;;;;;5073314;28;20122;-75
2022/01/31 02:35:56;;;;;;;19.55;5.00;;;4.10;87.50;;;;;;5066060;28;20416;-75
2022/01/31 02:38:22;;;;;;;23.80;5.18;;;4.20;87.40;;;;;;5073599;28;20036;-75
2022/01/31 02:40:50;;;;;;;23.70;5.70;;;4.30;87.40;;;;;;5043489;28;20036;-75
2022/01/31 02:43:24;;;;;;;29.25;5.72;;;4.40;87.50;;;;;;5044623;28;20036;-75
2022/01/31 02:45:50;;;;;;;20.63;4.70;;;4.50;87.30;;;;;;5050390;28;20044;-76
2022/01/31 02:48:20;;;;;;;30.38;4.60;;;4.60;86.90;;;;;;5070641;28;20036;-75
2022/01/31 02:50:46;;;;;;;24.42;5.00;;;4.80;86.60;;;;;;5066032;28;20041;-75
2022/01/31 02:53:14;;;;;;;23.67;4.15;;;5.00;86.10;;;;;;5060157;28;20052;-75
2022/01/31 02:55:42;;;;;;;30.63;4.85;;;5.00;85.80;;;;;;5056371;28;20036;-75
2022/01/31 02:58:09;;;;;;;33.10;5.38;;;5.20;85.30;;;;;;5066884;28;20051;-75
2022/01/31 03:00:36;;;;;;;25.40;4.35;;;5.20;85.00;;;;;;5052545;28;20051;-75
2022/01/31 03:03:03;;;;;;;26.48;4.43;;;5.30;85.10;;;;;;5055583;28;20040;-75
2022/01/31 03:05:29;;;;;;;25.08;4.05;;;5.20;85.00;;;;;;5057571;28;20104;-75
2022/01/31 03:07:56;;;;;;;26.80;4.70;;;5.20;84.90;;;;;;5062595;28;20339;-75
2022/01/31 03:10:22;;;;;;;29.95;4.93;;;5.20;84.50;;;;;;5066650;28;20067;-75
2022/01/31 03:12:47;;;;;;;28.53;4.60;;;5.20;84.50;;;;;;5061659;28;20070;-75
2022/01/31 03:15:13;;;;;;;16.97;3.63;;;5.20;84.30;;;;;;5050530;28;20076;-75
2022/01/31 03:17:42;;;;;;;30.63;5.07;;;5.30;84.00;;;;;;5053038;28;20073;-75
2022/01/31 03:20:08;;;;;;;20.95;4.40;;;5.30;83.60;;;;;;5074489;28;20690;-73
2022/01/31 03:22:34;;;;;;;22.67;3.85;;;5.20;83.30;;;;;;5049018;28;20036;-73
2022/01/31 03:24:59;;;;;;;25.10;4.20;;;5.20;83.30;;;;;;5059299;28;20143;-72
2022/01/31 03:27:25;;;;;;;31.97;4.37;;;5.30;83.30;;;;;;5070445;28;20041;-73
2022/01/31 03:29:51;;;;;;;24.53;3.50;;;5.30;83.50;;;;;;5049196;28;20299;-73
2022/01/31 03:32:16;;;;;;;27.17;4.33;;;5.20;83.50;;;;;;5030752;28;20102;-73
2022/01/31 03:34:42;;;;;;;25.53;3.60;;;5.20;83.50;;;;;;5055091;28;20040;-73
2022/01/31 03:37:08;;;;;;;24.03;4.00;;;5.20;83.20;;;;;;5067776;28;20156;-73
2022/01/31 03:39:34;;;;;;;27.47;3.93;;;5.20;83.80;;;;;;5072634;28;20042;-73
2022/01/31 03:41:59;;;;;;;21.70;3.73;;;5.20;83.70;;;;;;5059300;28;20083;-72
2022/01/31 03:44:25;;;;;;;26.10;4.07;;;5.20;83.20;;;;;;5059575;28;20071;-72
2022/01/31 03:46:51;;;;;;;27.67;3.60;;;5.10;82.90;;;;;;5068560;28;20040;-72
2022/01/31 03:49:17;;;;;;;27.80;3.43;;;5.10;82.70;;;;;;5053439;28;20400;-72
2022/01/31 03:51:42;;;;;;;24.10;3.80;;;5.10;82.60;;;;;;5081590;28;20044;-72
2022/01/31 03:54:08;;;;;;;25.87;3.70;;;5.10;81.90;;;;;;5054711;28;20761;-72
2022/01/31 03:56:35;;;;;;;18.60;3.43;;;5.10;82.00;;;;;;5054221;28;20042;-72
2022/01/31 03:59:02;;;;;;;22.58;2.95;;;5.00;82.10;;;;;;5062614;28;20044;-72
2022/01/31 04:01:28;;;;;;;19.23;4.55;;;5.00;81.50;;;;;;5063477;28;20041;-72
2022/01/31 04:03:53;;;;;;;18.03;2.93;;;4.90;82.30;;;;;;5048419;28;20139;-73
2022/01/31 04:06:19;;;;;;;23.87;3.53;;;4.90;82.30;;;;;;5061240;28;20044;-72
2022/01/31 04:08:45;;;;;;;25.97;3.47;;;4.80;82.00;;;;;;5070339;28;20100;-72
2022/01/31 04:11:10;;;;;;;19.60;3.73;;;4.80;82.30;;;;;;5060453;28;20034;-72
2022/01/31 04:13:37;;;;;;;16.13;3.13;;;4.80;82.30;;;;;;5049883;28;20045;-73
2022/01/31 04:16:03;;;;;;;25.20;3.92;;;4.90;82.50;;;;;;5078605;28;20047;-72
2022/01/31 04:18:29;;;;;;;27.50;3.75;;;4.90;82.40;;;;;;5044608;28;20107;-72
2022/01/31 04:20:55;;;;;;;22.27;3.40;;;4.90;82.70;;;;;;5058079;28;20036;-72
2022/01/31 04:23:23;;;;;;;23.87;4.30;;;4.80;83.20;;;;;;5070797;28;20036;-72
2022/01/31 04:28:26;;;;;;;24.00;3.27;;;4.70;83.80;;;;;;5069038;28;20061;-72
2022/01/31 04:33:24;;;;;;;29.95;4.00;;;4.80;83.70;;;;;;5093713;28;20127;-72
2022/01/31 04:35:49;;;;;;;27.85;4.47;;;4.70;83.90;;;;;;5062985;28;20044;-72
2022/01/31 04:38:15;;;;;;;15.73;2.67;;;4.70;84.30;;;;;;5066634;28;20582;-72
2022/01/31 04:40:41;;;;;;;9.10;1.00;;;4.80;83.80;;;;;;5066166;28;20045;-73
2022/01/31 04:43:07;;;;;;;14.00;1.10;;;4.70;82.30;;;;;;5046428;28;20042;-71
2022/01/31 04:45:33;;;;;;;16.30;1.20;;;4.50;83.00;;;;;;5081345;28;20116;-72
2022/01/31 04:47:59;;;;;;;12.67;1.20;;;4.30;83.30;;;;;;5047686;28;20036;-72
2022/01/31 04:50:24;;;;;;;11.63;1.17;;;4.20;83.90;;;;;;5069800;28;20043;-72
2022/01/31 04:52:50;;;;;;;11.13;0.90;;;4.10;83.60;;;;;;5067992;28;20033;-72
2022/01/31 04:55:16;;;;;;;10.07;0.97;;;4.00;83.70;;;;;;5079063;28;20051;-72
2022/01/31 04:57:42;;;;;;;8.17;0.97;;;4.00;84.10;;;;;;5074291;28;20095;-72
2022/01/31 05:00:09;;;;;;;13.00;1.83;;;3.90;84.30;;;;;;5054846;28;20075;-72
2022/01/31 05:02:36;;;;;;;10.13;1.20;;;3.90;84.80;;;;;;5078626;28;20123;-72
2022/01/31 05:05:03;;;;;;;16.77;1.70;;;3.90;85.00;;;;;;5076753;28;20114;-72
2022/01/31 05:07:29;;;;;;;18.02;1.85;;;4.00;85.10;;;;;;5070797;28;20070;-72
2022/01/31 05:09:54;;;;;;;12.32;1.55;;;4.00;85.10;;;;;;5070596;28;20039;-72
2022/01/31 05:12:21;;;;;;;18.60;1.73;;;4.00;85.30;;;;;;5051486;28;20044;-72
2022/01/31 05:14:46;;;;;;;15.02;2.20;;;4.00;85.50;;;;;;5060067;28;20044;-72
2022/01/31 05:17:12;;;;;;;18.27;2.97;;;4.00;85.80;;;;;;5053102;28;20039;-72
2022/01/31 05:19:38;;;;;;;16.50;2.10;;;4.10;85.90;;;;;;5046648;28;20080;-72
2022/01/31 05:22:04;;;;;;;18.27;2.00;;;4.10;85.90;;;;;;5051476;28;20052;-72
2022/01/31 05:24:30;;;;;;;21.00;1.70;;;4.20;85.80;;;;;;5055837;28;20090;-72
2022/01/31 05:26:55;;;;;;;19.23;3.22;;;4.20;85.70;;;;;;5052960;28;20053;-72
2022/01/31 05:29:22;;;;;;;20.40;2.63;;;4.20;86.00;;;;;;5062794;28;20474;-72
2022/01/31 05:31:48;;;;;;;20.88;2.60;;;4.20;85.80;;;;;;5064598;28;20044;-72
2022/01/31 05:34:15;;;;;;;19.30;2.90;;;4.20;85.80;;;;;;5035972;28;20055;-72
2022/01/31 05:36:42;;;;;;;19.63;2.72;;;4.20;86.10;;;;;;5035672;28;20075;-72
2022/01/31 05:39:08;;;;;;;22.38;2.97;;;4.20;86.40;;;;;;5066016;28;20033;-72
2022/01/31 05:41:33;;;;;;;20.43;1.90;;;4.20;86.50;;;;;;5042116;28;20056;-72
2022/01/31 05:43:59;;;;;;;16.63;1.87;;;4.30;86.60;;;;;;5050224;28;20033;-72
2022/01/31 05:46:25;;;;;;;13.50;2.30;;;4.40;86.00;;;;;;5054548;28;20075;-74
2022/01/31 05:48:51;;;;;;;16.40;2.17;;;4.40;85.90;;;;;;5046564;28;20071;-74
2022/01/31 05:51:23;;;;;;;16.92;2.55;;;4.50;85.60;;;;;;5065261;28;20037;-74
2022/01/31 05:53:50;;;;;;;18.08;1.90;;;4.50;85.20;;;;;;5043732;28;20045;-74
2022/01/31 05:56:17;;;;;;;12.15;1.75;;;4.50;85.30;;;;;;5057325;28;20040;-74
2022/01/31 05:58:43;;;;;;;17.10;1.70;;;4.60;84.80;;;;;;5059966;28;20033;-75
2022/01/31 06:01:10;;;;;;;16.10;1.55;;;4.60;84.60;;;;;;5046449;28;20048;-74
2022/01/31 06:03:37;;;;;;;12.52;1.80;;;4.60;84.70;;;;;;5042671;28;20075;-74
2022/01/31 06:06:04;;;;;;;16.05;2.30;;;4.70;84.20;;;;;;5064050;28;20052;-75
2022/01/31 06:08:30;;;;;;;16.45;2.92;;;4.70;83.90;;;;;;5041387;28;20432;-75
2022/01/31 06:10:56;;;;;;;25.37;2.50;;;4.70;83.90;;;;;;5058556;28;20041;-75
2022/01/31 06:13:28;;;;;;;14.52;2.53;;;4.60;83.80;;;;;;5051495;28;20047;-75
2022/01/31 06:15:54;;;;;;;16.88;1.90;;;4.60;83.50;;;;;;5064085;28;20055;-75
2022/01/31 06:18:20;;;;;;;15.13;1.80;;;4.60;83.20;;;;;;5066355;28;20037;-74
2022/01/31 06:20:46;;;;;;;12.13;1.57;;;4.50;83.30;;;;;;5039831;28;20032;-74
2022/01/31 06:23:12;;;;;;;22.17;2.00;;;4.40;83.70;;;;;;5051203;28;20048;-74
2022/01/31 06:25:38;;;;;;;17.02;2.10;;;4.30;84.20;;;;;;5064718;28;20290;-74
2022/01/31 06:28:06;;;;;;;18.20;1.95;;;4.30;84.60;;;;;;5040553;28;20040;-74
2022/01/31 06:30:32;;;;;;;14.25;2.30;;;4.30;84.60;;;;;;5065280;28;20040;-74
2022/01/31 06:32:58;;;;;;;19.40;2.35;;;4.30;84.90;;;;;;5059391;28;20040;-74
2022/01/31 06:35:24;;;;;;;25.63;2.70;;;4.30;85.20;;;;;;5065411;28;20067;-74
2022/01/31 06:37:51;;;;;;;21.60;2.38;;;4.30;85.50;;;;;;5053254;28;20538;-74
2022/01/31 06:40:17;;;;;;;20.95;3.08;;;4.30;85.70;;;;;;5070233;28;20055;-74
2022/01/31 06:42:43;;;;;;;22.07;2.73;;;4.30;86.10;;;;;;5052966;28;20033;-74
2022/01/31 06:45:09;;;;;;;21.80;2.20;;;4.40;86.30;;;;;;5049050;28;20063;-74
2022/01/31 06:47:35;;;;;;;24.73;3.22;;;4.50;86.20;;;;;;5069226;28;20040;-74
2022/01/31 06:50:04;;;;;;;26.20;3.50;;;4.50;86.30;;;;;;5073537;28;20052;-74
2022/01/31 06:52:33;;;;;;;22.65;2.90;;;4.50;86.60;;;;;;5078375;28;20103;-74
2022/01/31 06:55:03;;;;;;;22.45;3.13;;;4.50;86.50;;;;;;5053696;28;20048;-74
2022/01/31 06:57:33;;;;;;;23.02;3.40;;;4.60;86.60;;;;;;5052680;28;20127;-74
2022/01/31 07:00:05;;;;;;;20.42;2.75;;;4.60;86.60;;;;;;5067267;28;20041;-74
2022/01/31 07:02:30;;;;;;;17.73;2.85;;;4.60;86.50;;;;;;5078865;28;20044;-74
2022/01/31 07:04:56;;;;;;;19.33;2.90;;;4.60;86.50;;;;;;5051944;28;20032;-74
2022/01/31 07:07:22;;;;;;;26.48;3.42;;;4.60;86.50;;;;;;5061344;28;20507;-74
2022/01/31 07:09:48;;;;;;;26.30;3.57;;;4.70;86.70;;;;;;5041764;28;20090;-74
2022/01/31 07:12:16;;;;;;;26.23;3.30;;;4.60;86.90;;;;;;5054579;28;20041;-74
2022/01/31 07:14:42;;;;;;;21.75;2.90;;;4.70;86.90;;;;;;5089357;28;20044;-74
2022/01/31 07:17:08;;;;;;;24.10;3.60;;;4.70;87.20;;;;;;5045773;28;20510;-74
2022/01/31 07:19:36;;;;;;;34.05;4.25;;;4.70;87.40;;;;;;5078009;28;20060;-74
2022/01/31 07:22:06;;;;;;;34.95;4.90;;;4.70;87.80;;;;;;5064757;28;20036;-74
2022/01/31 07:24:45;;;;;;;31.27;4.47;;;4.70;87.80;;;;;;5082258;28;20616;-74
2022/01/31 07:27:11;;;;;;;32.22;4.38;;;4.80;87.60;;;;;;5062087;28;20045;-74
2022/01/31 07:29:38;;;;;;;36.43;4.03;;;4.90;88.00;;;;;;5053839;28;20048;-74
2022/01/31 07:32:07;;;;;;;38.42;5.20;;;4.90;87.80;;;;;;5068702;28;20453;-74
2022/01/31 07:34:33;;;;;;;36.05;5.55;;;5.00;87.70;;;;;;5065956;28;20040;-74
2022/01/31 07:36:59;;;;;;;34.20;5.27;;;5.00;87.50;;;;;;5047282;28;20181;-74
2022/01/31 07:39:24;;;;;;;32.27;3.97;;;5.00;87.00;;;;;;5047751;28;20090;-74
2022/01/31 07:41:50;;;;;;;25.30;3.53;;;5.00;87.10;;;;;;5079769;28;20096;-74
2022/01/31 07:44:16;;;;;;;30.67;4.27;;;5.00;87.40;;;;;;5060809;28;20094;-74
2022/01/31 07:46:42;;;;;;;19.87;2.73;;;5.00;87.10;;;;;;5070381;28;20040;-74
2022/01/31 07:49:08;;;;;;;25.02;2.67;;;5.00;87.00;;;;;;5067998;28;20275;-74
2022/01/31 07:51:38;;;;;;;29.90;3.33;;;5.00;87.10;;;;;;5049230;28;20123;-74
2022/01/31 07:54:04;;;;;;;21.48;2.63;;;5.00;87.00;;;;;;5061413;28;20045;-74
2022/01/31 07:56:30;;;;;;;24.43;3.07;;;5.00;87.40;;;;;;5037957;28;20054;-74
2022/01/31 07:58:55;;;;;;;26.67;3.67;;;5.00;87.60;;;;;;5052014;28;20039;-74
2022/01/31 08:01:21;;;;;;;26.17;3.73;;;5.00;87.60;;;;;;5050387;28;20045;-74
2022/01/31 08:03:47;;;;;;;27.10;3.73;;;5.00;87.70;;;;;;5059841;28;20049;-74
2022/01/31 08:06:13;;;;;;;8.23;1.52;;;4.90;87.90;;;;;;5050663;28;20071;-74
2022/01/31 08:08:40;;;;;;;11.15;1.42;;;4.90;87.80;;;;;;5036259;28;20047;-74
2022/01/31 08:11:06;;;;;;;15.23;2.10;;;4.90;87.50;;;;;;5074989;28;20048;-74
2022/01/31 08:13:35;;;;;;;17.92;2.30;;;4.80;87.50;;;;;;5064389;28;20047;-74
2022/01/31 08:18:39;;;;;;;17.80;1.60;;;4.90;87.50;;;;;;5056175;28;20528;-74
2022/01/31 08:21:07;;;;;;;17.88;2.55;;;4.90;87.80;;;;;;5045636;28;20451;-74
2022/01/31 08:23:33;;;;;;;19.73;2.13;;;5.00;88.00;;;;;;5044522;28;20042;-74
2022/01/31 08:26:01;;;;;;;26.70;3.15;;;5.00;88.10;;;;;;5078602;28;20039;-74
2022/01/31 08:29:19;;;;;;;21.33;2.05;;;5.10;88.10;;;;;;5072105;28;20048;-74
2022/01/31 08:31:24;;;;;;;25.50;3.08;;;5.10;88.10;;;;;;5062383;28;20550;-74
2022/01/31 08:34:05;;;;;;;15.65;2.63;;;5.10;87.90;;;;;;5059870;28;20105;-74
2022/01/31 08:36:36;;;;;;;13.38;1.55;;;5.10;88.00;;;;;;5057378;28;20040;-74
2022/01/31 08:39:12;;;;;;;17.60;2.08;;;5.20;87.90;;;;;;5062204;28;20407;-74
2022/01/31 08:41:41;;;;;;;;;;;5.10;87.90;;;;;;5056869;28;20040;-74
2022/01/31 08:44:08;;;;;;;12.18;1.25;;;5.10;87.90;;;;;;5066613;28;20384;-74
2022/01/31 08:46:35;;;;;;;16.80;1.73;;;5.10;87.80;;;;;;5062300;28;20117;-74
2022/01/31 08:49:01;;;;;;;19.73;2.78;;;5.00;87.80;;;;;;5052074;28;20075;-74
2022/01/31 08:51:27;;;;;;;15.63;1.70;;;5.10;88.10;;;;;;5078959;28;20043;-74
2022/01/31 08:53:53;;;;;;;14.33;1.57;;;5.10;88.20;;;;;;5058415;28;20040;-74
2022/01/31 08:56:20;;;;;;;12.55;1.20;;;5.10;88.00;;;;;;5058362;28;20140;-74
2022/01/31 08:58:48;;;;;;;13.63;1.42;;;5.20;87.50;;;;;;5072915;28;20033;-74
2022/01/31 09:01:21;;;;;;;12.02;1.17;;;5.10;87.40;;;;;;5046477;28;20047;-74
2022/01/31 09:06:21;;;;;;;13.52;2.45;;;5.10;87.70;;;;;;5063859;28;20145;-74
2022/01/31 09:08:47;;;;;;;8.63;1.48;;;5.10;87.80;;;;;;5062876;28;20052;-74
2022/01/31 09:11:13;;;;;;;14.73;1.93;;;5.10;88.00;;;;;;5056232;28;20032;-74
2022/01/31 09:13:39;;;;;;;21.77;2.22;;;5.10;88.10;;;;;;5033338;28;20078;-74
2022/01/31 09:16:08;;;;;;;18.30;3.38;;;5.20;88.00;;;;;;5049099;28;20036;-75
2022/01/31 09:18:35;;;;;;;13.85;1.65;;;5.20;87.90;;;;;;5044427;28;20040;-74
2022/01/31 09:21:03;;;;;;;15.95;1.50;;;5.30;88.00;;;;;;5031007;28;20055;-74
2022/01/31 09:23:29;;;;;;;11.60;1.85;;;5.30;88.00;;;;;;5058193;28;20037;-74
2022/01/31 09:25:56;;;;;;;17.02;2.08;;;5.30;87.80;;;;;;5068222;28;20105;-74
2022/01/31 09:28:22;;;;;;;14.25;1.65;;;5.40;87.50;;;;;;5074703;28;20048;-74
2022/01/31 09:30:48;;;;;;;10.57;1.40;;;5.50;87.40;;;;;;5047246;28;20041;-74
2022/01/31 09:33:18;;;;;;;16.00;2.83;;;5.50;87.00;;;;;;5061285;28;20044;-74
2022/01/31 09:35:43;;;;;;;16.85;1.60;;;5.50;87.00;;;;;;5059003;28;20047;-74
2022/01/31 09:38:12;;;;;;;19.33;2.30;;;5.60;86.70;;;;;;5055208;28;20555;-74
2022/01/31 09:40:38;;;;;;;17.75;2.13;;;5.60;86.60;;;;;;5066516;28;20499;-72
2022/01/31 09:51:15;;;;;;;20.60;2.47;;;5.60;87.00;;;;;;5063975;28;20420;-72
2022/01/31 09:53:49;;;;;;;12.88;1.58;;;5.60;86.90;;;;;;5050620;28;20044;-72
2022/01/31 09:56:18;;;;;;;19.52;2.03;;;5.70;87.20;;;;;;5049320;28;20051;-72
2022/01/31 09:58:44;;;;;;;16.20;1.40;;;5.70;86.90;;;;;;5041224;28;20033;-72
2022/01/31 10:01:16;;;;;;;13.40;1.90;;;5.80;86.60;;;;;;5031016;28;20044;-72
2022/01/31 10:03:50;;;;;;;11.63;2.15;;;5.80;86.90;;;;;;5076860;28;20661;-72
2022/01/31 10:06:22;;;;;;;18.60;2.08;;;5.70;86.30;;;;;;5068594;28;20040;-72
2022/01/31 10:09:04;;;;;;;16.50;1.70;;;5.70;86.60;;;;;;5056692;28;20055;-73
2022/01/31 10:11:38;;;;;;;12.57;1.83;;;5.70;86.90;;;;;;5051315;28;20050;-72
2022/01/31 10:17:26;;;;;;;14.90;1.30;;;5.70;86.80;;;;;;5077058;28;20054;-72
2022/01/31 10:19:55;;;;;;;11.40;1.50;;;5.70;87.00;;;;;;5049250;28;20152;-72
2022/01/31 10:22:23;;;;;;;12.98;1.30;;;5.70;87.00;;;;;;5051051;28;20047;-72
2022/01/31 10:24:51;;;;;;;11.90;1.17;;;5.70;87.10;;;;;;5049731;28;20362;-72
2022/01/31 10:27:22;;;;;;;9.85;1.00;;;5.70;86.70;;;;;;5081101;28;20077;-72
2022/01/31 10:29:50;;;;;;;9.50;0.80;;;5.70;86.80;;;;;;5068892;28;20071;-72
2022/01/31 10:32:29;;;;;;;10.57;0.82;;;5.70;86.50;;;;;;5055204;28;20072;-72
2022/01/31 10:34:57;;;;;;;6.53;0.75;;;5.60;86.80;;;;;;5068561;28;20040;-72
2022/01/31 10:37:26;;;;;;;6.57;0.90;;;5.60;87.00;;;;;;5046401;28;20064;-72
2022/01/31 10:45:55;;;;;;;11.07;1.25;;;5.30;87.30;;;;;;5058525;28;20048;-71
2022/01/31 10:56:57;;;;;;;16.15;2.08;;;5.30;88.00;;;;;;5065427;28;20082;-71
2022/01/31 10:59:42;;;;;;;19.23;2.70;;;5.40;88.00;;;;;;5065750;28;20340;-72
2022/01/31 11:02:18;;;;;;;23.42;2.90;;;5.40;88.40;;;;;;5058065;28;20047;-72
2022/01/31 11:04:44;;;;;;;31.08;4.07;;;5.50;88.40;;;;;;5044273;28;20040;-72
2022/01/31 11:07:13;;;;;;;46.35;6.28;;;5.50;88.40;;;;;;5043685;28;20105;-72
2022/01/31 11:09:41;;;;;;;41.80;5.57;;;5.60;88.50;;;;;;5069041;28;20079;-72
2022/01/31 11:12:08;;;;;;;47.63;5.93;;;5.80;88.80;;;;;;5027500;28;20075;-72
2022/01/31 11:14:36;;;;;;;49.22;7.43;;;5.90;88.60;;;;;;5042638;28;20044;-72
2022/01/31 11:17:10;;;;;;;44.92;6.85;;;6.00;88.70;;;;;;5065060;28;20047;-72
2022/01/31 11:19:38;;;;;;;44.05;5.90;;;6.00;88.50;;;;;;5066670;28;20079;-72
2022/01/31 11:22:10;;;;;;;50.15;5.60;;;6.10;88.40;;;;;;5055372;28;20463;-72
2022/01/31 11:24:58;;;;;;;40.83;6.65;;;6.10;88.50;;;;;;5067013;28;20089;-72
2022/01/31 11:27:24;;;;;;;38.75;5.43;;;6.20;88.40;;;;;;5043918;28;20140;-72
2022/01/31 11:29:55;;;;;;;33.03;4.93;;;6.20;88.50;;;;;;5050102;28;20552;-72
2022/01/31 11:32:21;;;;;;;52.45;6.82;;;6.30;88.40;;;;;;5046767;28;20047;-72
2022/01/31 11:34:47;;;;;;;31.13;4.80;;;6.40;88.40;;;;;;5076826;28;20396;-72
2022/01/31 11:37:16;;;;;;;31.03;4.57;;;6.40;88.40;;;;;;5048240;28;20040;-72
2022/01/31 11:39:45;;;;;;;33.53;5.20;;;6.40;88.40;;;;;;5058754;28;20274;-72
2022/01/31 11:42:13;;;;;;;26.00;3.72;;;6.40;88.30;;;;;;5055693;28;20092;-72
2022/01/31 11:44:48;;;;;;;23.23;3.95;;;6.50;88.50;;;;;;5058002;28;20051;-72
2022/01/31 11:47:14;;;;;;;25.95;3.20;;;6.60;88.30;;;;;;5066300;28;20036;-72
2022/01/31 11:49:48;;;;;;;25.60;3.40;;;6.70;88.30;;;;;;5051511;28;20071;-72
2022/01/31 11:52:16;;;;;;;31.45;4.53;;;6.70;88.10;;;;;;5069960;28;20097;-72
2022/01/31 11:54:49;;;;;;;31.70;4.00;;;6.70;88.30;;;;;;5052925;28;20130;-72
2022/01/31 11:57:20;;;;;;;21.35;3.60;;;6.70;87.90;;;;;;5103974;28;20125;-72
2022/01/31 11:59:51;;;;;;;34.05;4.07;;;6.80;87.60;;;;;;5074970;28;20044;-72
2022/01/31 12:02:19;;;;;;;23.00;3.28;;;6.90;87.70;;;;;;5074473;28;20067;-72
2022/01/31 12:04:49;;;;;;;22.33;3.63;;;7.00;87.70;;;;;;5063068;28;20128;-72
2022/01/31 12:07:40;;;;;;;18.90;3.15;;;7.10;87.70;;;;;;5068914;28;20084;-72
2022/01/31 12:10:23;;;;;;;23.15;3.05;;;7.10;87.20;;;;;;5063087;28;20040;-72
2022/01/31 12:12:57;;;;;;;13.38;2.67;;;7.10;87.00;;;;;;5070395;28;20044;-72
2022/01/31 12:23:46;;;;;;;20.05;2.42;;;6.90;86.80;;;;;;5077119;28;20037;-72
2022/01/31 12:26:34;;;;;;;23.02;2.92;;;6.90;86.60;;;;;;5051945;28;20033;-72
2022/01/31 12:29:15;;;;;;;22.38;3.50;;;6.90;87.00;;;;;;5053477;28;20053;-72
2022/01/31 12:31:42;;;;;;;30.10;3.65;;;6.90;86.80;;;;;;5051896;28;20052;-72
2022/01/31 12:34:36;;;;;;;29.95;4.15;;;6.90;86.70;;;;;;5068514;28;20051;-72
2022/01/31 12:37:16;;;;;;;26.40;4.47;;;6.90;86.80;;;;;;5054205;28;20039;-72
2022/01/31 12:39:50;;;;;;;28.38;4.20;;;6.90;86.60;;;;;;5054628;28;20041;-72
2022/01/31 12:45:14;;;;;;;35.53;4.57;;;6.90;86.60;;;;;;5073852;28;20087;-72
2022/01/31 12:48:05;;;;;;;32.92;4.68;;;6.90;86.00;;;;;;5056085;28;20044;-73
2022/01/31 12:50:33;;;;;;;36.53;6.28;;;6.80;86.00;;;;;;5079937;28;20055;-72
2022/01/31 12:53:04;;;;;;;36.17;5.90;;;6.70;85.80;;;;;;5052980;28;20051;-73
2022/01/31 12:55:31;;;;;;;34.47;5.70;;;6.80;86.20;;;;;;5055479;28;20040;-73
2022/01/31 12:57:57;;;;;;;31.13;5.57;;;6.70;86.00;;;;;;5054328;28;20050;-73
2022/01/31 13:00:43;;;;;;;33.80;5.17;;;6.70;86.70;;;;;;5069263;28;20135;-73
2022/01/31 13:03:09;;;;;;;38.00;4.78;;;6.80;86.40;;;;;;5082583;28;20036;-73
2022/01/31 13:05:40;;;;;;;34.47;5.55;;;6.80;86.10;;;;;;5048662;28;20032;-73
2022/01/31 13:08:23;;;;;;;35.42;4.45;;;6.80;86.10;;;;;;5065986;28;20118;-73
2022/01/31 13:10:51;;;;;;;33.22;5.15;;;6.80;86.20;;;;;;5072750;28;20113;-73
2022/01/31 13:13:31;;;;;;;32.35;5.30;;;6.80;86.60;;;;;;5055123;28;20443;-72
2022/01/31 13:16:07;;;;;;;38.83;5.55;;;6.80;86.50;;;;;;5085537;28;20048;-73
2022/01/31 13:18:33;;;;;;;31.15;4.38;;;6.70;85.80;;;;;;5071438;28;20036;-73
2022/01/31 13:21:05;;;;;;;29.30;4.82;;;6.70;86.00;;;;;;5070049;28;20096;-73
2022/01/31 13:23:35;;;;;;;27.38;4.18;;;6.70;86.20;;;;;;5068482;28;20587;-72
2022/01/31 13:26:04;;;;;;;33.72;4.63;;;6.70;85.70;;;;;;5054478;28;20055;-73
2022/01/31 13:28:30;;;;;;;30.55;3.40;;;6.70;85.70;;;;;;5059861;28;20165;-72
2022/01/31 13:31:12;;;;;;;33.40;4.47;;;6.60;85.50;;;;;;5087456;28;20040;-73
2022/01/31 13:33:51;;;;;;;27.73;4.03;;;6.60;85.70;;;;;;5037791;28;20040;-73
2022/01/31 13:36:16;;;;;;;27.80;3.53;;;6.60;85.40;;;;;;5051774;28;20127;-73
2022/01/31 13:38:43;;;;;;;31.30;4.77;;;6.60;86.20;;;;;;5055991;28;20036;-73
2022/01/31 13:41:11;;;;;;;33.67;4.68;;;6.60;85.90;;;;;;5080139;28;20097;-73
2022/01/31 13:43:39;;;;;;;23.63;4.38;;;6.60;86.20;;;;;;5053495;28;20643;-73